Time,TemperatureF,DewpointF,PressureIn,WindDirection,WindDirectionDegrees,WindSpeedMPH,WindSpeedGustMPH,Humidity,HourlyPrecipIn,Conditions,Clouds,dailyrainin,SoftwareType,DateUTC
2013-03-11 00:13:00,47.3,34.0,30.13,South,173,3.0,5.0,60,0.00,,,0.00,weatherlink.com 1.10,2013-03-11 04:13:00,
2013-03-11 00:28:00,47.2,34.0,30.12,South,173,3.0,5.0,60,0.00,,,0.00,weatherlink.com 1.10,2013-03-11 04:28:00,
2013-03-11 00:43:00,46.9,34.0,30.12,South,173,3.0,3.0,61,0.00,,,0.00,weatherlink.com 1.10,2013-03-11 04:43:00,
2013-03-11 00:58:00,46.6,34.0,30.11,South,173,1.0,5.0,62,0.00,,,0.00,weatherlink.com 1.10,2013-03-11 04:58:00,
2013-03-11 01:13:00,46.6,34.0,30.11,South,181,0.0,6.0,62,0.00,,,0.00,weatherlink.com 1.10,2013-03-11 05:13:00,
2013-03-11 01:28:00,46.3,34.0,30.10,South,179,2.0,4.0,63,0.00,,,0.00,weatherlink.com 1.10,2013-03-11 05:28:00,
2013-03-11 01:43:00,46.5,35.0,30.09,South,176,1.0,8.0,65,0.00,,,0.00,weatherlink.com 1.10,2013-03-11 05:43:00,
2013-03-11 01:58:00,45.8,35.0,30.10,South,176,1.0,5.0,67,0.00,,,0.00,weatherlink.com 1.10,2013-03-11 05:58:00,
2013-03-11 02:13:00,45.5,36.0,30.09,South,176,3.0,5.0,69,0.00,,,0.00,weatherlink.com 1.10,2013-03-11 06:13:00,
2013-03-11 02:28:00,45.4,35.0,30.09,South,176,0.0,3.0,68,0.00,,,0.00,weatherlink.com 1.10,2013-03-11 06:28:00,
2013-03-11 02:43:00,45.3,36.0,30.09,South,176,0.0,3.0,71,0.00,,,0.00,weatherlink.com 1.10,2013-03-11 06:43:00,
2013-03-11 02:58:00,44.6,36.0,30.09,South,176,0.0,2.0,72,0.00,,,0.00,weatherlink.com 1.10,2013-03-11 06:58:00,
2013-03-11 03:14:00,44.0,36.0,30.08,South,176,0.0,2.0,74,0.00,,,0.00,weatherlink.com 1.10,2013-03-11 07:14:00,
2013-03-11 03:29:00,44.7,39.0,30.07,South,174,0.0,5.0,79,0.00,,,0.00,weatherlink.com 1.10,2013-03-11 07:29:00,
2013-03-11 03:44:00,44.9,39.0,30.06,South,174,0.0,3.0,79,0.00,,,0.00,weatherlink.com 1.10,2013-03-11 07:44:00,
2013-03-11 03:59:00,44.9,38.0,30.06,South,174,0.0,3.0,77,0.00,,,0.00,weatherlink.com 1.10,2013-03-11 07:59:00,
2013-03-11 04:14:00,44.8,39.0,30.06,South,174,0.0,0.0,79,0.00,,,0.00,weatherlink.com 1.10,2013-03-11 08:14:00,
2013-03-11 04:29:00,44.8,39.0,30.05,South,174,0.0,1.0,81,0.00,,,0.00,weatherlink.com 1.10,2013-03-11 08:29:00,
2013-03-11 04:44:00,45.1,41.0,30.04,South,175,0.0,4.0,85,0.00,,,0.00,weatherlink.com 1.10,2013-03-11 08:44:00,
2013-03-11 04:59:00,45.4,42.0,30.03,South,174,0.0,5.0,88,0.00,,,0.00,weatherlink.com 1.10,2013-03-11 08:59:00,
2013-03-11 05:14:00,45.2,41.0,30.03,South,172,2.0,4.0,86,0.00,,,0.00,weatherlink.com 1.10,2013-03-11 09:14:00,
2013-03-11 05:29:00,44.8,41.0,30.03,South,172,0.0,5.0,85,0.00,,,0.00,weatherlink.com 1.10,2013-03-11 09:29:00,
2013-03-11 05:44:00,44.4,40.0,30.03,South,172,0.0,1.0,85,0.00,,,0.00,weatherlink.com 1.10,2013-03-11 09:44:00,
2013-03-11 05:59:00,44.5,41.0,30.03,South,172,0.0,2.0,87,0.00,,,0.00,weatherlink.com 1.10,2013-03-11 09:59:00,
2013-03-11 06:14:00,44.4,41.0,30.03,South,172,0.0,2.0,88,0.00,,,0.00,weatherlink.com 1.10,2013-03-11 10:14:00,
2013-03-11 06:29:00,44.5,42.0,30.02,South,172,0.0,2.0,90,0.00,,,0.00,weatherlink.com 1.10,2013-03-11 10:29:00,
2013-03-11 06:44:00,44.4,42.0,30.03,South,172,0.0,5.0,91,0.00,,,0.00,weatherlink.com 1.10,2013-03-11 10:44:00,
2013-03-11 06:59:00,44.6,43.0,30.03,South,172,1.0,4.0,92,0.00,,,0.00,weatherlink.com 1.10,2013-03-11 10:59:00,
2013-03-11 07:14:00,44.8,43.0,30.02,South,172,3.0,6.0,93,0.00,,,0.00,weatherlink.com 1.10,2013-03-11 11:14:00,
2013-03-11 07:29:00,44.8,43.0,30.03,South,173,1.0,7.0,93,0.00,,,0.00,weatherlink.com 1.10,2013-03-11 11:29:00,
2013-03-11 07:44:00,44.5,43.0,30.02,South,172,2.0,5.0,93,0.00,,,0.00,weatherlink.com 1.10,2013-03-11 11:44:00,
2013-03-11 07:59:00,44.5,43.0,30.03,South,173,5.0,7.0,94,0.00,,,0.00,weatherlink.com 1.10,2013-03-11 11:59:00,
2013-03-11 08:14:00,44.6,43.0,30.03,South,172,2.0,8.0,94,0.00,,,0.00,weatherlink.com 1.10,2013-03-11 12:14:00,
2013-03-11 08:29:00,44.7,43.0,30.03,South,172,2.0,7.0,94,0.00,,,0.00,weatherlink.com 1.10,2013-03-11 12:29:00,
2013-03-11 08:44:00,44.9,43.0,30.03,South,173,4.0,11.0,94,0.00,,,0.00,weatherlink.com 1.10,2013-03-11 12:44:00,
2013-03-11 08:59:00,45.2,44.0,30.04,South,169,3.0,9.0,94,0.01,,,0.01,weatherlink.com 1.10,2013-03-11 12:59:00,
2013-03-11 09:29:00,45.2,44.0,30.03,South,170,3.0,11.0,95,0.03,,,0.03,weatherlink.com 1.10,2013-03-11 13:29:00,
2013-03-11 09:44:00,45.1,44.0,30.03,South,170,3.0,11.0,95,0.03,,,0.03,weatherlink.com 1.10,2013-03-11 13:44:00,
2013-03-11 09:59:00,45.2,44.0,30.02,South,173,4.0,8.0,95,0.03,,,0.04,weatherlink.com 1.10,2013-03-11 13:59:00,
2013-03-11 10:14:00,45.3,44.0,30.02,South,169,4.0,10.0,95,0.03,,,0.04,weatherlink.com 1.10,2013-03-11 14:14:00,
2013-03-11 10:29:00,45.3,44.0,30.02,South,174,3.0,13.0,95,0.01,,,0.04,weatherlink.com 1.10,2013-03-11 14:29:00,
2013-03-11 10:44:00,45.5,44.0,30.01,South,169,3.0,10.0,95,0.01,,,0.04,weatherlink.com 1.10,2013-03-11 14:44:00,
2013-03-11 10:59:00,45.5,44.0,30.01,South,173,1.0,6.0,95,0.00,,,0.04,weatherlink.com 1.10,2013-03-11 14:59:00,
2013-03-11 11:14:00,45.5,44.0,30.01,South,170,3.0,8.0,95,0.00,,,0.04,weatherlink.com 1.10,2013-03-11 15:14:00,
2013-03-11 11:29:00,45.6,44.0,30.00,South,172,2.0,4.0,95,0.00,,,0.04,weatherlink.com 1.10,2013-03-11 15:29:00,
2013-03-11 11:44:00,45.8,45.0,30.00,South,172,1.0,4.0,95,0.01,,,0.05,weatherlink.com 1.10,2013-03-11 15:44:00,
2013-03-11 11:59:00,45.9,45.0,29.99,South,172,3.0,5.0,95,0.03,,,0.07,weatherlink.com 1.10,2013-03-11 15:59:00,
2013-03-11 12:14:00,45.7,44.0,29.99,South,170,2.0,6.0,95,0.03,,,0.07,weatherlink.com 1.10,2013-03-11 16:14:00,
2013-03-11 12:29:00,45.5,44.0,29.99,South,170,2.0,4.0,95,0.04,,,0.08,weatherlink.com 1.10,2013-03-11 16:29:00,
2013-03-11 12:44:00,45.4,44.0,29.99,South,172,1.0,6.0,95,0.04,,,0.09,weatherlink.com 1.10,2013-03-11 16:44:00,
2013-03-11 13:00:00,45.7,44.0,29.98,South,172,2.0,5.0,95,0.04,,,0.11,weatherlink.com 1.10,2013-03-11 17:00:00,
2013-03-11 13:15:00,45.6,44.0,29.97,South,172,0.0,3.0,95,0.03,,,0.11,weatherlink.com 1.10,2013-03-11 17:15:00,
2013-03-11 13:30:00,45.3,44.0,29.97,South,172,2.0,3.0,95,0.03,,,0.11,weatherlink.com 1.10,2013-03-11 17:30:00,
2013-03-11 13:45:00,45.4,44.0,29.96,South,172,0.0,5.0,95,0.02,,,0.11,weatherlink.com 1.10,2013-03-11 17:45:00,
2013-03-11 14:00:00,45.5,45.0,29.95,South,172,4.0,5.0,96,0.00,,,0.11,weatherlink.com 1.10,2013-03-11 18:00:00,
2013-03-11 14:15:00,45.4,44.0,29.93,South,176,1.0,7.0,96,0.01,,,0.12,weatherlink.com 1.10,2013-03-11 18:15:00,
2013-03-11 14:30:00,45.2,44.0,29.91,South,176,0.0,5.0,96,0.01,,,0.12,weatherlink.com 1.10,2013-03-11 18:30:00,
2013-03-11 14:45:00,45.2,44.0,29.92,South,176,2.0,3.0,96,0.01,,,0.12,weatherlink.com 1.10,2013-03-11 18:45:00,
2013-03-11 15:00:00,45.4,44.0,29.91,South,176,2.0,3.0,96,0.01,,,0.12,weatherlink.com 1.10,2013-03-11 19:00:00,
2013-03-11 15:15:00,46.1,45.0,29.91,South,176,2.0,5.0,96,0.00,,,0.12,weatherlink.com 1.10,2013-03-11 19:15:00,
2013-03-11 15:30:00,46.9,46.0,29.90,South,176,0.0,2.0,96,0.00,,,0.12,weatherlink.com 1.10,2013-03-11 19:30:00,
2013-03-11 15:45:00,47.5,47.0,29.89,South,176,0.0,4.0,96,0.00,,,0.12,weatherlink.com 1.10,2013-03-11 19:45:00,
2013-03-11 16:00:00,47.5,47.0,29.89,South,176,0.0,0.0,96,0.00,,,0.12,weatherlink.com 1.10,2013-03-11 20:00:00,
2013-03-11 16:15:00,47.9,47.0,29.89,South,176,0.0,6.0,96,0.00,,,0.12,weatherlink.com 1.10,2013-03-11 20:15:00,
2013-03-11 16:30:00,48.4,47.0,29.88,South,176,1.0,4.0,96,0.00,,,0.12,weatherlink.com 1.10,2013-03-11 20:30:00,
2013-03-11 16:45:00,48.7,48.0,29.88,South,174,1.0,2.0,96,0.00,,,0.12,weatherlink.com 1.10,2013-03-11 20:45:00,
2013-03-11 17:00:00,49.2,47.0,29.90,South,172,3.0,8.0,93,0.00,,,0.12,weatherlink.com 1.10,2013-03-11 21:00:00,
2013-03-11 17:15:00,49.4,48.0,29.86,South,173,1.0,6.0,93,0.00,,,0.12,weatherlink.com 1.10,2013-03-11 21:15:00,
2013-03-11 17:30:00,49.5,47.0,29.86,South,173,1.0,5.0,91,0.00,,,0.12,weatherlink.com 1.10,2013-03-11 21:30:00,
2013-03-11 17:45:00,48.9,47.0,29.86,South,173,2.0,4.0,92,0.00,,,0.12,weatherlink.com 1.10,2013-03-11 21:45:00,
2013-03-11 18:00:00,48.8,47.0,29.86,South,173,2.0,5.0,92,0.00,,,0.12,weatherlink.com 1.10,2013-03-11 22:00:00,
2013-03-11 18:15:00,48.9,46.0,29.86,South,173,1.0,6.0,91,0.01,,,0.13,weatherlink.com 1.10,2013-03-11 22:15:00,
2013-03-11 18:30:00,48.9,47.0,29.86,South,173,0.0,4.0,93,0.05,,,0.17,weatherlink.com 1.10,2013-03-11 22:30:00,
2013-03-11 18:45:00,48.8,47.0,29.86,South,174,3.0,6.0,94,0.09,,,0.21,weatherlink.com 1.10,2013-03-11 22:45:00,
2013-03-11 19:00:00,48.7,47.0,29.86,South,174,2.0,5.0,94,0.12,,,0.24,weatherlink.com 1.10,2013-03-11 23:00:00,
2013-03-11 19:15:00,48.4,47.0,29.85,South,178,8.0,8.0,94,0.15,,,0.28,weatherlink.com 1.10,2013-03-11 23:15:00,
2013-03-11 19:30:00,48.3,47.0,29.86,South,174,1.0,11.0,94,0.14,,,0.31,weatherlink.com 1.10,2013-03-11 23:30:00,
2013-03-11 19:45:00,48.6,47.0,29.86,South,173,1.0,8.0,95,0.14,,,0.35,weatherlink.com 1.10,2013-03-11 23:45:00,
2013-03-11 20:00:00,48.6,47.0,29.86,South,173,1.0,5.0,95,0.13,,,0.37,weatherlink.com 1.10,2013-03-12 00:00:00,
2013-03-11 20:15:00,48.7,47.0,29.87,South,173,3.0,5.0,95,0.11,,,0.39,weatherlink.com 1.10,2013-03-12 00:15:00,
2013-03-11 20:30:00,48.7,47.0,29.87,South,173,3.0,5.0,95,0.13,,,0.44,weatherlink.com 1.10,2013-03-12 00:30:00,
2013-03-11 20:45:00,48.8,48.0,29.87,South,179,0.0,4.0,95,0.16,,,0.51,weatherlink.com 1.10,2013-03-12 00:45:00,
2013-03-11 21:00:00,48.9,48.0,29.86,South,177,2.0,5.0,95,0.18,,,0.55,weatherlink.com 1.10,2013-03-12 01:00:00,
2013-03-11 21:15:00,49.1,48.0,29.86,South,177,2.0,6.0,96,0.20,,,0.60,weatherlink.com 1.10,2013-03-12 01:15:00,
2013-03-11 21:30:00,49.1,48.0,29.87,South,176,0.0,5.0,96,0.28,,,0.72,weatherlink.com 1.10,2013-03-12 01:30:00,
2013-03-11 21:45:00,49.1,48.0,29.86,South,176,4.0,5.0,95,0.25,,,0.76,weatherlink.com 1.10,2013-03-12 01:45:00,
2013-03-11 22:00:00,49.1,48.0,29.86,South,176,1.0,3.0,95,0.25,,,0.80,weatherlink.com 1.10,2013-03-12 02:00:00,
2013-03-11 22:15:00,48.9,48.0,29.86,South,176,0.0,1.0,95,0.21,,,0.81,weatherlink.com 1.10,2013-03-12 02:15:00,
2013-03-11 22:30:00,48.9,48.0,29.86,South,176,0.0,1.0,95,0.11,,,0.83,weatherlink.com 1.10,2013-03-12 02:30:00,
2013-03-11 22:45:00,48.9,48.0,29.85,South,176,0.0,1.0,96,0.09,,,0.85,weatherlink.com 1.10,2013-03-12 02:45:00,
2013-03-11 23:00:00,48.8,48.0,29.85,South,176,1.0,1.0,96,0.08,,,0.88,weatherlink.com 1.10,2013-03-12 03:00:00,
2013-03-11 23:15:00,48.7,48.0,29.84,South,176,0.0,2.0,96,0.11,,,0.92,weatherlink.com 1.10,2013-03-12 03:15:00,
2013-03-11 23:30:00,48.9,48.0,29.83,South,176,0.0,3.0,96,0.10,,,0.93,weatherlink.com 1.10,2013-03-12 03:30:00,
2013-03-11 23:45:00,49.1,48.0,29.83,South,176,3.0,6.0,96,0.10,,,0.95,weatherlink.com 1.10,2013-03-12 03:45:00,